sensor_id;sensor_type;location;lat;lon;timestamp;P1;durP1;ratioP1;P2;durP2;ratioP2
72864;SDS011;61000;48.120;11.548;2023-02-18T00:01:09;3.33;;;2.92;;
72864;SDS011;61000;48.120;11.548;2023-02-18T00:03:37;3.80;;;2.60;;
72864;SDS011;61000;48.120;11.548;2023-02-18T00:06:13;4.38;;;2.85;;
72864;SDS011;61000;48.120;11.548;2023-02-18T00:08:41;2.95;;;2.65;;
72864;SDS011;61000;48.120;11.548;2023-02-18T00:11:09;3.35;;;2.72;;
72864;SDS011;61000;48.120;11.548;2023-02-18T00:13:37;2.60;;;2.40;;
72864;SDS011;61000;48.120;11.548;2023-02-18T00:16:05;2.65;;;2.40;;
72864;SDS011;61000;48.120;11.548;2023-02-18T00:18:33;4.78;;;2.35;;
72864;SDS011;61000;48.120;11.548;2023-02-18T00:21:02;5.65;;;2.95;;
72864;SDS011;61000;48.120;11.548;2023-02-18T00:23:31;5.57;;;2.88;;
72864;SDS011;61000;48.120;11.548;2023-02-18T00:25:58;3.75;;;2.05;;
72864;SDS011;61000;48.120;11.548;2023-02-18T00:28:26;4.13;;;2.42;;
72864;SDS011;61000;48.120;11.548;2023-02-18T00:30:52;3.13;;;2.47;;
72864;SDS011;61000;48.120;11.548;2023-02-18T00:33:19;5.53;;;2.40;;
72864;SDS011;61000;48.120;11.548;2023-02-18T00:35:46;3.78;;;2.63;;
72864;SDS011;61000;48.120;11.548;2023-02-18T00:38:14;3.55;;;2.88;;
72864;SDS011;61000;48.120;11.548;2023-02-18T00:40:42;6.43;;;3.63;;
72864;SDS011;61000;48.120;11.548;2023-02-18T00:43:09;5.80;;;3.25;;
72864;SDS011;61000;48.120;11.548;2023-02-18T00:45:36;3.15;;;2.38;;
72864;SDS011;61000;48.120;11.548;2023-02-18T00:48:03;2.92;;;2.33;;
72864;SDS011;61000;48.120;11.548;2023-02-18T00:50:29;3.70;;;2.45;;
72864;SDS011;61000;48.120;11.548;2023-02-18T00:52:56;4.28;;;3.63;;
72864;SDS011;61000;48.120;11.548;2023-02-18T00:55:23;3.72;;;2.10;;
72864;SDS011;61000;48.120;11.548;2023-02-18T00:57:51;2.92;;;2.38;;
72864;SDS011;61000;48.120;11.548;2023-02-18T01:00:18;2.95;;;2.40;;
72864;SDS011;61000;48.120;11.548;2023-02-18T01:02:45;2.08;;;1.95;;
72864;SDS011;61000;48.120;11.548;2023-02-18T01:05:12;2.72;;;2.05;;
72864;SDS011;61000;48.120;11.548;2023-02-18T01:07:40;2.22;;;1.90;;
72864;SDS011;61000;48.120;11.548;2023-02-18T01:10:07;2.83;;;2.17;;
72864;SDS011;61000;48.120;11.548;2023-02-18T01:12:34;2.67;;;2.05;;
72864;SDS011;61000;48.120;11.548;2023-02-18T01:15:02;2.40;;;2.20;;
72864;SDS011;61000;48.120;11.548;2023-02-18T01:17:30;3.15;;;1.98;;
72864;SDS011;61000;48.120;11.548;2023-02-18T01:19:57;2.13;;;1.92;;
72864;SDS011;61000;48.120;11.548;2023-02-18T01:22:25;3.13;;;2.20;;
72864;SDS011;61000;48.120;11.548;2023-02-18T01:24:52;3.45;;;2.60;;
72864;SDS011;61000;48.120;11.548;2023-02-18T01:27:19;4.07;;;2.72;;
72864;SDS011;61000;48.120;11.548;2023-02-18T01:29:45;3.83;;;2.70;;
72864;SDS011;61000;48.120;11.548;2023-02-18T01:32:14;3.55;;;2.58;;
72864;SDS011;61000;48.120;11.548;2023-02-18T01:34:40;5.88;;;2.60;;
72864;SDS011;61000;48.120;11.548;2023-02-18T01:37:07;4.30;;;2.92;;
72864;SDS011;61000;48.120;11.548;2023-02-18T01:39:34;3.13;;;2.83;;
72864;SDS011;61000;48.120;11.548;2023-02-18T01:42:01;2.53;;;2.13;;
72864;SDS011;61000;48.120;11.548;2023-02-18T01:44:28;4.25;;;2.78;;
72864;SDS011;61000;48.120;11.548;2023-02-18T01:46:55;6.63;;;2.85;;
72864;SDS011;61000;48.120;11.548;2023-02-18T01:49:26;3.00;;;2.70;;
72864;SDS011;61000;48.120;11.548;2023-02-18T01:51:58;5.22;;;2.78;;
72864;SDS011;61000;48.120;11.548;2023-02-18T01:54:30;3.35;;;3.05;;
72864;SDS011;61000;48.120;11.548;2023-02-18T01:56:59;3.83;;;3.30;;
72864;SDS011;61000;48.120;11.548;2023-02-18T01:59:28;5.15;;;2.90;;
72864;SDS011;61000;48.120;11.548;2023-02-18T02:01:59;4.22;;;2.80;;
72864;SDS011;61000;48.120;11.548;2023-02-18T02:04:29;3.30;;;2.80;;
72864;SDS011;61000;48.120;11.548;2023-02-18T02:06:56;4.50;;;2.92;;
72864;SDS011;61000;48.120;11.548;2023-02-18T02:09:23;5.47;;;3.10;;
72864;SDS011;61000;48.120;11.548;2023-02-18T02:14:50;3.95;;;2.90;;
72864;SDS011;61000;48.120;11.548;2023-02-18T02:17:32;3.17;;;2.72;;
72864;SDS011;61000;48.120;11.548;2023-02-18T02:26:16;4.45;;;2.50;;
72864;SDS011;61000;48.120;11.548;2023-02-18T02:29:15;3.67;;;2.42;;
72864;SDS011;61000;48.120;11.548;2023-02-18T02:32:08;3.58;;;2.53;;
72864;SDS011;61000;48.120;11.548;2023-02-18T02:34:56;3.83;;;2.70;;
72864;SDS011;61000;48.120;11.548;2023-02-18T02:37:29;3.40;;;2.28;;
72864;SDS011;61000;48.120;11.548;2023-02-18T02:40:08;2.97;;;2.30;;
72864;SDS011;61000;48.120;11.548;2023-02-18T02:42:45;2.83;;;2.00;;
72864;SDS011;61000;48.120;11.548;2023-02-18T02:45:21;2.47;;;2.28;;
72864;SDS011;61000;48.120;11.548;2023-02-18T02:47:54;3.92;;;2.63;;
72864;SDS011;61000;48.120;11.548;2023-02-18T02:50:29;3.15;;;2.22;;
72864;SDS011;61000;48.120;11.548;2023-02-18T02:53:05;2.38;;;2.00;;
72864;SDS011;61000;48.120;11.548;2023-02-18T02:55:40;4.18;;;2.40;;
72864;SDS011;61000;48.120;11.548;2023-02-18T02:58:08;2.22;;;1.95;;
72864;SDS011;61000;48.120;11.548;2023-02-18T03:00:42;2.47;;;1.92;;
72864;SDS011;61000;48.120;11.548;2023-02-18T03:03:33;2.22;;;2.03;;
72864;SDS011;61000;48.120;11.548;2023-02-18T03:06:36;2.30;;;1.88;;
72864;SDS011;61000;48.120;11.548;2023-02-18T03:09:16;1.85;;;1.70;;
72864;SDS011;61000;48.120;11.548;2023-02-18T03:11:51;1.95;;;1.70;;
72864;SDS011;61000;48.120;11.548;2023-02-18T03:14:26;1.77;;;1.67;;
72864;SDS011;61000;48.120;11.548;2023-02-18T03:16:57;1.88;;;1.67;;
72864;SDS011;61000;48.120;11.548;2023-02-18T03:19:28;1.83;;;1.73;;
72864;SDS011;61000;48.120;11.548;2023-02-18T03:22:02;1.85;;;1.50;;
72864;SDS011;61000;48.120;11.548;2023-02-18T03:24:33;1.95;;;1.75;;
72864;SDS011;61000;48.120;11.548;2023-02-18T03:27:03;1.50;;;1.40;;
72864;SDS011;61000;48.120;11.548;2023-02-18T03:29:35;1.95;;;1.67;;
72864;SDS011;61000;48.120;11.548;2023-02-18T03:32:04;1.45;;;1.35;;
72864;SDS011;61000;48.120;11.548;2023-02-18T03:34:34;2.55;;;1.65;;
72864;SDS011;61000;48.120;11.548;2023-02-18T03:37:07;2.13;;;1.52;;
72864;SDS011;61000;48.120;11.548;2023-02-18T03:39:36;1.90;;;1.60;;
72864;SDS011;61000;48.120;11.548;2023-02-18T03:42:06;2.33;;;1.70;;
72864;SDS011;61000;48.120;11.548;2023-02-18T03:44:33;1.55;;;1.45;;
72864;SDS011;61000;48.120;11.548;2023-02-18T03:47:00;1.70;;;1.60;;
72864;SDS011;61000;48.120;11.548;2023-02-18T03:49:27;1.98;;;1.77;;
72864;SDS011;61000;48.120;11.548;2023-02-18T03:51:54;1.70;;;1.60;;
72864;SDS011;61000;48.120;11.548;2023-02-18T03:54:22;3.70;;;1.42;;
72864;SDS011;61000;48.120;11.548;2023-02-18T03:56:49;1.70;;;1.60;;
72864;SDS011;61000;48.120;11.548;2023-02-18T03:59:16;1.75;;;1.60;;
72864;SDS011;61000;48.120;11.548;2023-02-18T04:01:45;2.10;;;2.00;;
72864;SDS011;61000;48.120;11.548;2023-02-18T04:04:12;2.13;;;1.95;;
72864;SDS011;61000;48.120;11.548;2023-02-18T04:06:39;1.70;;;1.60;;
72864;SDS011;61000;48.120;11.548;2023-02-18T04:09:05;2.40;;;1.70;;
72864;SDS011;61000;48.120;11.548;2023-02-18T04:11:35;3.63;;;1.88;;
72864;SDS011;61000;48.120;11.548;2023-02-18T04:14:02;2.10;;;1.92;;
72864;SDS011;61000;48.120;11.548;2023-02-18T04:16:29;1.85;;;1.73;;
72864;SDS011;61000;48.120;11.548;2023-02-18T04:18:56;1.60;;;1.48;;
72864;SDS011;61000;48.120;11.548;2023-02-18T04:21:23;2.75;;;1.75;;
72864;SDS011;61000;48.120;11.548;2023-02-18T04:23:50;2.75;;;1.70;;
72864;SDS011;61000;48.120;11.548;2023-02-18T04:26:17;2.42;;;2.05;;
72864;SDS011;61000;48.120;11.548;2023-02-18T04:28:45;2.45;;;2.00;;
72864;SDS011;61000;48.120;11.548;2023-02-18T04:31:12;2.58;;;2.20;;
72864;SDS011;61000;48.120;11.548;2023-02-18T04:33:39;2.30;;;2.03;;
72864;SDS011;61000;48.120;11.548;2023-02-18T04:36:06;2.03;;;1.92;;
72864;SDS011;61000;48.120;11.548;2023-02-18T04:38:33;3.03;;;2.20;;
72864;SDS011;61000;48.120;11.548;2023-02-18T04:41:00;2.08;;;1.90;;
72864;SDS011;61000;48.120;11.548;2023-02-18T04:43:27;2.00;;;1.77;;
72864;SDS011;61000;48.120;11.548;2023-02-18T04:45:55;2.30;;;2.10;;
72864;SDS011;61000;48.120;11.548;2023-02-18T04:48:22;2.50;;;2.30;;
72864;SDS011;61000;48.120;11.548;2023-02-18T04:50:49;2.00;;;1.90;;
72864;SDS011;61000;48.120;11.548;2023-02-18T04:53:16;1.85;;;1.75;;
72864;SDS011;61000;48.120;11.548;2023-02-18T04:55:43;2.08;;;1.98;;
72864;SDS011;61000;48.120;11.548;2023-02-18T04:58:15;3.22;;;1.70;;
72864;SDS011;61000;48.120;11.548;2023-02-18T05:00:41;1.70;;;1.60;;
72864;SDS011;61000;48.120;11.548;2023-02-18T05:03:10;1.85;;;1.75;;
72864;SDS011;61000;48.120;11.548;2023-02-18T05:05:36;2.40;;;2.20;;
72864;SDS011;61000;48.120;11.548;2023-02-18T05:08:03;2.03;;;1.83;;
72864;SDS011;61000;48.120;11.548;2023-02-18T05:10:30;2.28;;;2.08;;
72864;SDS011;61000;48.120;11.548;2023-02-18T05:12:57;1.60;;;1.50;;
72864;SDS011;61000;48.120;11.548;2023-02-18T05:15:24;1.70;;;1.60;;
72864;SDS011;61000;48.120;11.548;2023-02-18T05:17:51;2.05;;;1.75;;
72864;SDS011;61000;48.120;11.548;2023-02-18T05:20:20;1.75;;;1.65;;
72864;SDS011;61000;48.120;11.548;2023-02-18T05:22:46;1.42;;;1.33;;
72864;SDS011;61000;48.120;11.548;2023-02-18T05:25:13;1.30;;;1.20;;
72864;SDS011;61000;48.120;11.548;2023-02-18T05:27:40;1.60;;;1.50;;
72864;SDS011;61000;48.120;11.548;2023-02-18T05:30:07;1.17;;;1.10;;
72864;SDS011;61000;48.120;11.548;2023-02-18T05:32:34;3.08;;;1.40;;
72864;SDS011;61000;48.120;11.548;2023-02-18T05:35:01;1.58;;;1.48;;
72864;SDS011;61000;48.120;11.548;2023-02-18T05:37:29;1.30;;;1.25;;
72864;SDS011;61000;48.120;11.548;2023-02-18T05:39:56;2.42;;;1.50;;
72864;SDS011;61000;48.120;11.548;2023-02-18T05:42:23;1.27;;;1.17;;
72864;SDS011;61000;48.120;11.548;2023-02-18T05:44:50;1.40;;;1.30;;
72864;SDS011;61000;48.120;11.548;2023-02-18T05:47:17;1.17;;;1.10;;
72864;SDS011;61000;48.120;11.548;2023-02-18T05:49:44;2.75;;;1.10;;
72864;SDS011;61000;48.120;11.548;2023-02-18T05:52:10;0.95;;;0.90;;
72864;SDS011;61000;48.120;11.548;2023-02-18T05:54:39;1.48;;;0.93;;
72864;SDS011;61000;48.120;11.548;2023-02-18T05:57:06;1.23;;;1.13;;
72864;SDS011;61000;48.120;11.548;2023-02-18T05:59:33;1.45;;;1.30;;
72864;SDS011;61000;48.120;11.548;2023-02-18T06:01:59;1.83;;;0.90;;
72864;SDS011;61000;48.120;11.548;2023-02-18T06:04:26;1.10;;;1.00;;
72864;SDS011;61000;48.120;11.548;2023-02-18T06:06:53;1.27;;;0.95;;
72864;SDS011;61000;48.120;11.548;2023-02-18T06:09:20;0.88;;;0.88;;
72864;SDS011;61000;48.120;11.548;2023-02-18T06:11:49;0.90;;;0.90;;
72864;SDS011;61000;48.120;11.548;2023-02-18T06:14:16;2.58;;;1.17;;
72864;SDS011;61000;48.120;11.548;2023-02-18T06:16:43;1.48;;;1.38;;
72864;SDS011;61000;48.120;11.548;2023-02-18T06:19:10;1.00;;;1.00;;
72864;SDS011;61000;48.120;11.548;2023-02-18T06:21:37;1.25;;;1.15;;
72864;SDS011;61000;48.120;11.548;2023-02-18T06:24:04;1.00;;;1.00;;
72864;SDS011;61000;48.120;11.548;2023-02-18T06:26:31;0.95;;;0.95;;
72864;SDS011;61000;48.120;11.548;2023-02-18T06:28:59;1.00;;;1.00;;
72864;SDS011;61000;48.120;11.548;2023-02-18T06:31:26;1.15;;;1.15;;
72864;SDS011;61000;48.120;11.548;2023-02-18T06:33:53;1.00;;;1.00;;
72864;SDS011;61000;48.120;11.548;2023-02-18T06:36:20;1.10;;;0.85;;
72864;SDS011;61000;48.120;11.548;2023-02-18T06:38:47;1.15;;;0.98;;
72864;SDS011;61000;48.120;11.548;2023-02-18T06:41:14;3.92;;;0.90;;
72864;SDS011;61000;48.120;11.548;2023-02-18T06:43:41;2.15;;;1.00;;
72864;SDS011;61000;48.120;11.548;2023-02-18T06:46:09;2.05;;;0.80;;
72864;SDS011;61000;48.120;11.548;2023-02-18T06:48:36;0.90;;;0.90;;
72864;SDS011;61000;48.120;11.548;2023-02-18T06:51:03;0.77;;;0.77;;
72864;SDS011;61000;48.120;11.548;2023-02-18T06:53:31;0.80;;;0.80;;
72864;SDS011;61000;48.120;11.548;2023-02-18T06:55:58;0.88;;;0.88;;
72864;SDS011;61000;48.120;11.548;2023-02-18T06:58:25;0.98;;;0.90;;
72864;SDS011;61000;48.120;11.548;2023-02-18T07:00:52;1.00;;;0.90;;
72864;SDS011;61000;48.120;11.548;2023-02-18T07:03:20;1.95;;;0.90;;
72864;SDS011;61000;48.120;11.548;2023-02-18T07:05:47;2.22;;;1.17;;
72864;SDS011;61000;48.120;11.548;2023-02-18T07:08:13;0.80;;;0.80;;
72864;SDS011;61000;48.120;11.548;2023-02-18T07:10:41;0.90;;;0.90;;
72864;SDS011;61000;48.120;11.548;2023-02-18T07:13:08;0.88;;;0.88;;
72864;SDS011;61000;48.120;11.548;2023-02-18T07:15:34;0.90;;;0.90;;
72864;SDS011;61000;48.120;11.548;2023-02-18T07:18:01;2.17;;;0.90;;
72864;SDS011;61000;48.120;11.548;2023-02-18T07:20:30;0.70;;;0.70;;
72864;SDS011;61000;48.120;11.548;2023-02-18T07:22:57;0.85;;;0.85;;
72864;SDS011;61000;48.120;11.548;2023-02-18T07:25:24;1.75;;;0.73;;
72864;SDS011;61000;48.120;11.548;2023-02-18T07:27:51;0.80;;;0.80;;
72864;SDS011;61000;48.120;11.548;2023-02-18T07:30:18;0.95;;;0.95;;
72864;SDS011;61000;48.120;11.548;2023-02-18T07:32:46;0.70;;;0.70;;
72864;SDS011;61000;48.120;11.548;2023-02-18T07:35:13;1.17;;;0.90;;
72864;SDS011;61000;48.120;11.548;2023-02-18T07:37:44;1.23;;;0.90;;
72864;SDS011;61000;48.120;11.548;2023-02-18T07:40:12;0.70;;;0.70;;
72864;SDS011;61000;48.120;11.548;2023-02-18T07:42:40;1.00;;;0.88;;
72864;SDS011;61000;48.120;11.548;2023-02-18T07:45:08;1.00;;;1.00;;
72864;SDS011;61000;48.120;11.548;2023-02-18T07:47:35;0.88;;;0.88;;
72864;SDS011;61000;48.120;11.548;2023-02-18T07:50:02;0.90;;;0.90;;
72864;SDS011;61000;48.120;11.548;2023-02-18T07:52:29;0.80;;;0.80;;
72864;SDS011;61000;48.120;11.548;2023-02-18T07:54:58;0.88;;;0.88;;
72864;SDS011;61000;48.120;11.548;2023-02-18T07:57:24;1.50;;;1.40;;
72864;SDS011;61000;48.120;11.548;2023-02-18T07:59:51;1.65;;;0.95;;
72864;SDS011;61000;48.120;11.548;2023-02-18T08:02:19;1.23;;;1.02;;
72864;SDS011;61000;48.120;11.548;2023-02-18T08:04:47;2.05;;;1.00;;
72864;SDS011;61000;48.120;11.548;2023-02-18T08:07:15;1.05;;;1.00;;
72864;SDS011;61000;48.120;11.548;2023-02-18T08:09:45;1.50;;;1.40;;
72864;SDS011;61000;48.120;11.548;2023-02-18T08:12:14;1.17;;;1.00;;
72864;SDS011;61000;48.120;11.548;2023-02-18T08:14:41;1.27;;;1.10;;
72864;SDS011;61000;48.120;11.548;2023-02-18T08:17:08;3.85;;;0.98;;
72864;SDS011;61000;48.120;11.548;2023-02-18T08:19:35;1.38;;;1.00;;
72864;SDS011;61000;48.120;11.548;2023-02-18T08:22:02;1.63;;;1.00;;
72864;SDS011;61000;48.120;11.548;2023-02-18T08:24:29;1.10;;;1.00;;
72864;SDS011;61000;48.120;11.548;2023-02-18T08:26:56;1.90;;;1.00;;
72864;SDS011;61000;48.120;11.548;2023-02-18T08:29:24;1.02;;;0.93;;
72864;SDS011;61000;48.120;11.548;2023-02-18T08:31:51;0.80;;;0.80;;
72864;SDS011;61000;48.120;11.548;2023-02-18T08:34:19;1.25;;;0.90;;
72864;SDS011;61000;48.120;11.548;2023-02-18T08:36:46;1.73;;;0.90;;
72864;SDS011;61000;48.120;11.548;2023-02-18T08:39:12;0.90;;;0.90;;
72864;SDS011;61000;48.120;11.548;2023-02-18T08:41:39;0.95;;;0.95;;
72864;SDS011;61000;48.120;11.548;2023-02-18T08:44:06;1.13;;;1.05;;
72864;SDS011;61000;48.120;11.548;2023-02-18T08:46:34;1.05;;;0.88;;
72864;SDS011;61000;48.120;11.548;2023-02-18T08:49:01;1.95;;;1.10;;
72864;SDS011;61000;48.120;11.548;2023-02-18T08:51:29;2.05;;;1.00;;
72864;SDS011;61000;48.120;11.548;2023-02-18T08:53:56;1.20;;;1.10;;
72864;SDS011;61000;48.120;11.548;2023-02-18T08:56:23;1.20;;;1.10;;
72864;SDS011;61000;48.120;11.548;2023-02-18T08:58:50;0.90;;;0.90;;
72864;SDS011;61000;48.120;11.548;2023-02-18T09:01:17;1.48;;;1.25;;
72864;SDS011;61000;48.120;11.548;2023-02-18T09:03:46;1.17;;;1.10;;
72864;SDS011;61000;48.120;11.548;2023-02-18T09:06:13;1.05;;;1.02;;
72864;SDS011;61000;48.120;11.548;2023-02-18T09:08:40;0.82;;;0.82;;
72864;SDS011;61000;48.120;11.548;2023-02-18T09:11:06;0.95;;;0.85;;
72864;SDS011;61000;48.120;11.548;2023-02-18T09:13:35;1.58;;;1.30;;
72864;SDS011;61000;48.120;11.548;2023-02-18T09:16:03;1.70;;;1.20;;
72864;SDS011;61000;48.120;11.548;2023-02-18T09:18:31;2.88;;;1.10;;
72864;SDS011;61000;48.120;11.548;2023-02-18T09:21:00;2.72;;;1.40;;
72864;SDS011;61000;48.120;11.548;2023-02-18T09:23:29;1.20;;;1.08;;
72864;SDS011;61000;48.120;11.548;2023-02-18T09:25:57;2.35;;;1.20;;
72864;SDS011;61000;48.120;11.548;2023-02-18T09:28:24;1.08;;;0.98;;
72864;SDS011;61000;48.120;11.548;2023-02-18T09:30:51;3.47;;;1.20;;
72864;SDS011;61000;48.120;11.548;2023-02-18T09:33:18;2.72;;;1.23;;
72864;SDS011;61000;48.120;11.548;2023-02-18T09:35:45;2.28;;;1.20;;
72864;SDS011;61000;48.120;11.548;2023-02-18T09:38:14;1.00;;;0.95;;
72864;SDS011;61000;48.120;11.548;2023-02-18T09:40:43;1.00;;;1.00;;
72864;SDS011;61000;48.120;11.548;2023-02-18T09:43:17;1.20;;;1.10;;
72864;SDS011;61000;48.120;11.548;2023-02-18T09:45:49;1.27;;;1.02;;
72864;SDS011;61000;48.120;11.548;2023-02-18T09:48:18;3.33;;;1.00;;
72864;SDS011;61000;48.120;11.548;2023-02-18T09:50:49;1.08;;;1.00;;
72864;SDS011;61000;48.120;11.548;2023-02-18T09:53:19;1.02;;;0.93;;
72864;SDS011;61000;48.120;11.548;2023-02-18T09:55:47;1.08;;;0.80;;
72864;SDS011;61000;48.120;11.548;2023-02-18T09:58:16;2.15;;;0.90;;
72864;SDS011;61000;48.120;11.548;2023-02-18T10:00:46;0.73;;;0.73;;
72864;SDS011;61000;48.120;11.548;2023-02-18T10:03:16;0.98;;;0.90;;
72864;SDS011;61000;48.120;11.548;2023-02-18T10:05:47;1.48;;;1.00;;
72864;SDS011;61000;48.120;11.548;2023-02-18T10:08:23;1.13;;;0.93;;
72864;SDS011;61000;48.120;11.548;2023-02-18T10:10:53;1.90;;;0.80;;
72864;SDS011;61000;48.120;11.548;2023-02-18T10:13:20;3.38;;;0.93;;
72864;SDS011;61000;48.120;11.548;2023-02-18T10:15:49;0.93;;;0.80;;
72864;SDS011;61000;48.120;11.548;2023-02-18T10:18:20;2.40;;;0.90;;
72864;SDS011;61000;48.120;11.548;2023-02-18T10:20:52;1.33;;;0.77;;
72864;SDS011;61000;48.120;11.548;2023-02-18T10:23:27;0.82;;;0.80;;
72864;SDS011;61000;48.120;11.548;2023-02-18T10:25:56;1.65;;;1.00;;
72864;SDS011;61000;48.120;11.548;2023-02-18T10:28:24;1.60;;;0.95;;
72864;SDS011;61000;48.120;11.548;2023-02-18T10:30:54;1.45;;;0.95;;
72864;SDS011;61000;48.120;11.548;2023-02-18T10:33:26;2.75;;;1.10;;
72864;SDS011;61000;48.120;11.548;2023-02-18T10:36:01;1.80;;;1.13;;
72864;SDS011;61000;48.120;11.548;2023-02-18T10:38:49;2.63;;;0.95;;
72864;SDS011;61000;48.120;11.548;2023-02-18T10:41:47;2.47;;;1.20;;
72864;SDS011;61000;48.120;11.548;2023-02-18T10:44:24;1.30;;;1.20;;
72864;SDS011;61000;48.120;11.548;2023-02-18T10:46:59;2.00;;;1.00;;
72864;SDS011;61000;48.120;11.548;2023-02-18T10:49:44;1.90;;;1.10;;
72864;SDS011;61000;48.120;11.548;2023-02-18T10:52:22;1.75;;;1.10;;
72864;SDS011;61000;48.120;11.548;2023-02-18T10:54:53;0.95;;;0.93;;
72864;SDS011;61000;48.120;11.548;2023-02-18T10:57:24;2.45;;;0.93;;
72864;SDS011;61000;48.120;11.548;2023-02-18T10:59:55;0.90;;;0.90;;
72864;SDS011;61000;48.120;11.548;2023-02-18T11:02:26;3.97;;;1.17;;
72864;SDS011;61000;48.120;11.548;2023-02-18T11:04:56;3.97;;;1.50;;
72864;SDS011;61000;48.120;11.548;2023-02-18T11:07:30;1.95;;;1.05;;
72864;SDS011;61000;48.120;11.548;2023-02-18T11:10:06;0.98;;;0.98;;
72864;SDS011;61000;48.120;11.548;2023-02-18T11:12:42;1.00;;;1.00;;
72864;SDS011;61000;48.120;11.548;2023-02-18T11:15:18;3.83;;;1.10;;
72864;SDS011;61000;48.120;11.548;2023-02-18T11:17:48;1.75;;;0.90;;
72864;SDS011;61000;48.120;11.548;2023-02-18T11:20:23;1.17;;;0.98;;
72864;SDS011;61000;48.120;11.548;2023-02-18T11:22:55;1.52;;;1.10;;
72864;SDS011;61000;48.120;11.548;2023-02-18T11:25:25;1.60;;;1.10;;
72864;SDS011;61000;48.120;11.548;2023-02-18T11:27:57;1.83;;;1.10;;
72864;SDS011;61000;48.120;11.548;2023-02-18T11:30:29;0.75;;;0.75;;
72864;SDS011;61000;48.120;11.548;2023-02-18T11:32:59;1.58;;;1.00;;
72864;SDS011;61000;48.120;11.548;2023-02-18T11:35:30;1.10;;;0.95;;
72864;SDS011;61000;48.120;11.548;2023-02-18T11:37:58;0.93;;;0.90;;
72864;SDS011;61000;48.120;11.548;2023-02-18T11:40:30;1.27;;;1.00;;
72864;SDS011;61000;48.120;11.548;2023-02-18T11:43:03;1.13;;;1.08;;
72864;SDS011;61000;48.120;11.548;2023-02-18T11:45:32;1.42;;;1.33;;
72864;SDS011;61000;48.120;11.548;2023-02-18T11:48:00;1.33;;;0.90;;
72864;SDS011;61000;48.120;11.548;2023-02-18T11:50:32;1.55;;;0.90;;
72864;SDS011;61000;48.120;11.548;2023-02-18T11:53:00;1.10;;;1.00;;
72864;SDS011;61000;48.120;11.548;2023-02-18T11:55:54;1.08;;;1.00;;
72864;SDS011;61000;48.120;11.548;2023-02-18T11:58:22;2.25;;;1.20;;
72864;SDS011;61000;48.120;11.548;2023-02-18T12:00:50;1.48;;;1.10;;
72864;SDS011;61000;48.120;11.548;2023-02-18T12:03:23;2.10;;;1.20;;
72864;SDS011;61000;48.120;11.548;2023-02-18T12:05:56;0.90;;;0.90;;
72864;SDS011;61000;48.120;11.548;2023-02-18T12:08:26;1.55;;;1.17;;
72864;SDS011;61000;48.120;11.548;2023-02-18T12:11:00;1.60;;;1.42;;
72864;SDS011;61000;48.120;11.548;2023-02-18T12:13:30;2.00;;;1.13;;
72864;SDS011;61000;48.120;11.548;2023-02-18T12:16:02;1.65;;;1.30;;
72864;SDS011;61000;48.120;11.548;2023-02-18T12:18:43;1.77;;;1.10;;
72864;SDS011;61000;48.120;11.548;2023-02-18T12:21:24;2.25;;;1.10;;
72864;SDS011;61000;48.120;11.548;2023-02-18T12:24:09;4.47;;;1.02;;
72864;SDS011;61000;48.120;11.548;2023-02-18T12:26:48;2.30;;;1.00;;
72864;SDS011;61000;48.120;11.548;2023-02-18T12:29:31;2.17;;;1.00;;
72864;SDS011;61000;48.120;11.548;2023-02-18T12:35:06;1.30;;;1.10;;
72864;SDS011;61000;48.120;11.548;2023-02-18T12:37:59;0.90;;;0.90;;
72864;SDS011;61000;48.120;11.548;2023-02-18T12:40:47;2.15;;;1.00;;
72864;SDS011;61000;48.120;11.548;2023-02-18T12:43:35;2.38;;;0.80;;
72864;SDS011;61000;48.120;11.548;2023-02-18T12:46:16;1.00;;;1.00;;
72864;SDS011;61000;48.120;11.548;2023-02-18T12:48:52;1.23;;;1.13;;
72864;SDS011;61000;48.120;11.548;2023-02-18T12:51:37;2.28;;;1.02;;
72864;SDS011;61000;48.120;11.548;2023-02-18T12:57:23;1.13;;;1.00;;
72864;SDS011;61000;48.120;11.548;2023-02-18T13:00:16;0.82;;;0.80;;
72864;SDS011;61000;48.120;11.548;2023-02-18T13:03:08;2.80;;;1.15;;
72864;SDS011;61000;48.120;11.548;2023-02-18T13:05:51;1.60;;;1.10;;
72864;SDS011;61000;48.120;11.548;2023-02-18T13:08:30;1.08;;;0.90;;
72864;SDS011;61000;48.120;11.548;2023-02-18T13:11:10;1.13;;;0.88;;
72864;SDS011;61000;48.120;11.548;2023-02-18T13:13:45;1.75;;;0.95;;
72864;SDS011;61000;48.120;11.548;2023-02-18T13:16:21;1.70;;;1.13;;
72864;SDS011;61000;48.120;11.548;2023-02-18T13:18:53;4.43;;;1.20;;
72864;SDS011;61000;48.120;11.548;2023-02-18T13:21:26;1.40;;;1.00;;
72864;SDS011;61000;48.120;11.548;2023-02-18T13:23:55;4.05;;;1.00;;
72864;SDS011;61000;48.120;11.548;2023-02-18T13:26:25;1.08;;;0.98;;
72864;SDS011;61000;48.120;11.548;2023-02-18T13:28:57;0.80;;;0.73;;
72864;SDS011;61000;48.120;11.548;2023-02-18T13:31:38;1.67;;;1.30;;
72864;SDS011;61000;48.120;11.548;2023-02-18T13:34:14;1.08;;;0.95;;
72864;SDS011;61000;48.120;11.548;2023-02-18T13:36:53;0.77;;;0.77;;
72864;SDS011;61000;48.120;11.548;2023-02-18T13:39:29;1.00;;;0.90;;
72864;SDS011;61000;48.120;11.548;2023-02-18T13:42:10;1.00;;;0.95;;
72864;SDS011;61000;48.120;11.548;2023-02-18T13:45:01;2.30;;;0.98;;
72864;SDS011;61000;48.120;11.548;2023-02-18T13:47:45;1.30;;;0.95;;
72864;SDS011;61000;48.120;11.548;2023-02-18T13:50:27;1.60;;;1.10;;
72864;SDS011;61000;48.120;11.548;2023-02-18T13:53:13;5.28;;;1.13;;
72864;SDS011;61000;48.120;11.548;2023-02-18T13:55:52;1.10;;;0.95;;
72864;SDS011;61000;48.120;11.548;2023-02-18T13:58:23;1.77;;;1.00;;
72864;SDS011;61000;48.120;11.548;2023-02-18T14:00:55;3.60;;;1.15;;
72864;SDS011;61000;48.120;11.548;2023-02-18T14:03:35;3.20;;;1.17;;
72864;SDS011;61000;48.120;11.548;2023-02-18T14:06:17;3.47;;;1.17;;
72864;SDS011;61000;48.120;11.548;2023-02-18T14:08:45;1.75;;;1.10;;
72864;SDS011;61000;48.120;11.548;2023-02-18T14:11:23;1.25;;;1.15;;
72864;SDS011;61000;48.120;11.548;2023-02-18T14:14:13;1.33;;;1.10;;
72864;SDS011;61000;48.120;11.548;2023-02-18T14:17:11;1.23;;;1.17;;
72864;SDS011;61000;48.120;11.548;2023-02-18T14:19:41;3.25;;;1.20;;
72864;SDS011;61000;48.120;11.548;2023-02-18T14:22:25;3.10;;;1.50;;
72864;SDS011;61000;48.120;11.548;2023-02-18T14:24:55;3.55;;;1.70;;
72864;SDS011;61000;48.120;11.548;2023-02-18T14:27:25;3.22;;;1.27;;
72864;SDS011;61000;48.120;11.548;2023-02-18T14:29:52;2.08;;;1.20;;
72864;SDS011;61000;48.120;11.548;2023-02-18T14:32:19;3.30;;;1.25;;
72864;SDS011;61000;48.120;11.548;2023-02-18T14:34:52;1.20;;;1.10;;
72864;SDS011;61000;48.120;11.548;2023-02-18T14:37:40;1.40;;;1.30;;
72864;SDS011;61000;48.120;11.548;2023-02-18T14:40:34;2.17;;;1.45;;
72864;SDS011;61000;48.120;11.548;2023-02-18T14:43:23;1.33;;;1.10;;
72864;SDS011;61000;48.120;11.548;2023-02-18T14:46:04;2.33;;;1.50;;
72864;SDS011;61000;48.120;11.548;2023-02-18T14:48:41;2.28;;;1.17;;
72864;SDS011;61000;48.120;11.548;2023-02-18T14:51:18;1.75;;;1.50;;
72864;SDS011;61000;48.120;11.548;2023-02-18T14:53:47;1.10;;;1.10;;
72864;SDS011;61000;48.120;11.548;2023-02-18T14:56:15;8.02;;;1.33;;
72864;SDS011;61000;48.120;11.548;2023-02-18T14:58:44;1.60;;;1.20;;
72864;SDS011;61000;48.120;11.548;2023-02-18T15:01:15;1.23;;;1.15;;
72864;SDS011;61000;48.120;11.548;2023-02-18T15:03:45;5.78;;;1.30;;
72864;SDS011;61000;48.120;11.548;2023-02-18T15:06:27;2.17;;;1.50;;
72864;SDS011;61000;48.120;11.548;2023-02-18T15:08:55;1.42;;;1.33;;
72864;SDS011;61000;48.120;11.548;2023-02-18T15:11:23;2.08;;;1.13;;